Time;durP1;ratioP1;P1;durP2;ratioP2;P2;SDS_P1;SDS_P2;PMS_P1;PMS_P2;Temp;Humidity;BMP_temperature;BMP_pressure;BME280_temperature;BME280_humidity;BME280_pressure;Samples;Min_cycle;Max_cycle;Signal;HPM_P1;HPM_P2
2023/05/26 00:01:16;;;;;;;14.15;11.35;;;;;;;;;;6285802;22;20011;-79
2023/05/26 00:04:02;;;;;;;20.02;11.75;;;;;;;;;;6284422;22;20045;-80
2023/05/26 00:06:53;;;;;;;14.20;10.88;;;;;;;;;;6285566;22;20428;-80
2023/05/26 00:09:38;;;;;;;13.88;10.77;;;;;;;;;;6284386;22;20321;-80
2023/05/26 00:12:23;;;;;;;15.15;10.65;;;;;;;;;;6285353;22;20015;-79
2023/05/26 00:15:09;;;;;;;13.07;10.73;;;;;;;;;;6284469;22;20321;-80
2023/05/26 00:17:57;;;;;;;17.63;10.77;;;;;;;;;;6285604;22;20020;-81
2023/05/26 00:20:42;;;;;;;14.23;10.88;;;;;;;;;;6285176;22;20011;-79
2023/05/26 00:23:27;;;;;;;13.60;10.15;;;;;;;;;;6285522;22;20023;-80
2023/05/26 00:26:13;;;;;;;13.52;9.68;;;;;;;;;;6280361;22;20023;-81
2023/05/26 00:29:00;;;;;;;15.57;8.80;;;;;;;;;;6284519;22;20016;-80
2023/05/26 00:31:46;;;;;;;12.73;9.07;;;;;;;;;;6284373;22;20012;-80
2023/05/26 00:34:35;;;;;;;15.98;9.60;;;;;;;;;;6284786;22;20020;-80
2023/05/26 00:37:22;;;;;;;12.98;9.55;;;;;;;;;;6284266;22;20011;-81
2023/05/26 00:40:08;;;;;;;13.40;9.98;;;;;;;;;;6283839;22;20012;-80
2023/05/26 00:42:54;;;;;;;10.30;9.25;;;;;;;;;;6284364;22;20015;-80
2023/05/26 00:45:40;;;;;;;12.20;8.77;;;;;;;;;;6284106;22;20019;-80
2023/05/26 00:48:26;;;;;;;11.50;8.95;;;;;;;;;;6285108;22;20015;-80
2023/05/26 00:51:12;;;;;;;10.07;8.25;;;;;;;;;;6285508;22;20016;-80
2023/05/26 00:53:58;;;;;;;11.02;8.60;;;;;;;;;;6283988;22;20333;-81
2023/05/26 00:56:45;;;;;;;11.80;8.60;;;;;;;;;;6262850;22;20011;-81
2023/05/26 00:59:31;;;;;;;11.73;8.73;;;;;;;;;;6284146;22;20020;-80
2023/05/26 01:02:15;;;;;;;11.70;9.40;;;;;;;;;;6283725;22;20011;-80
2023/05/26 01:05:02;;;;;;;10.68;9.23;;;;;;;;;;6285506;22;20015;-80
2023/05/26 01:07:47;;;;;;;14.00;9.50;;;;;;;;;;6283886;22;20019;-81
2023/05/26 01:10:33;;;;;;;10.60;9.10;;;;;;;;;;6283992;22;20016;-81
2023/05/26 01:13:22;;;;;;;12.57;9.85;;;;;;;;;;6285419;22;20015;-81
2023/05/26 01:16:11;;;;;;;13.55;9.70;;;;;;;;;;6283743;22;20016;-81
2023/05/26 01:19:13;;;;;;;10.23;9.13;;;;;;;;;;6284169;22;20015;-81
2023/05/26 01:22:16;;;;;;;12.95;9.90;;;;;;;;;;6283749;22;20016;-81
2023/05/26 01:25:22;;;;;;;11.82;9.13;;;;;;;;;;6284095;22;20011;-81
2023/05/26 01:28:21;;;;;;;13.65;9.43;;;;;;;;;;6284109;22;20020;-81
2023/05/26 01:31:07;;;;;;;10.68;9.50;;;;;;;;;;6284055;22;20016;-81
2023/05/26 01:33:54;;;;;;;15.18;9.30;;;;;;;;;;6285302;22;20016;-80
2023/05/26 01:36:39;;;;;;;10.95;9.02;;;;;;;;;;6283434;22;20011;-80
2023/05/26 01:39:25;;;;;;;13.23;9.00;;;;;;;;;;6285383;22;20016;-80
2023/05/26 01:42:33;;;;;;;10.52;8.23;;;;;;;;;;6283963;22;20011;-81
2023/05/26 01:45:21;;;;;;;6.65;5.93;;;;;;;;;;6285254;22;20015;-81
2023/05/26 01:48:09;;;;;;;6.82;5.70;;;;;;;;;;6285592;22;20011;-81
2023/05/26 01:50:57;;;;;;;7.60;5.65;;;;;;;;;;6263961;22;20320;-81
2023/05/26 01:53:47;;;;;;;7.55;5.28;;;;;;;;;;6264353;22;20012;-80
2023/05/26 01:56:35;;;;;;;6.95;5.65;;;;;;;;;;6285400;22;20019;-81
2023/05/26 01:59:21;;;;;;;10.38;5.75;;;;;;;;;;6286979;22;20015;-81
2023/05/26 02:02:06;;;;;;;10.07;7.25;;;;;;;;;;6264164;22;20012;-81
2023/05/26 02:04:53;;;;;;;8.85;7.28;;;;;;;;;;6285394;22;20016;-81
2023/05/26 02:07:40;;;;;;;12.98;8.13;;;;;;;;;;6287041;22;20019;-82
2023/05/26 02:10:25;;;;;;;11.30;8.10;;;;;;;;;;6285312;22;20019;-81
2023/05/26 02:13:11;;;;;;;16.50;12.00;;;;;;;;;;6264023;22;20015;-81
2023/05/26 02:15:57;;;;;;;18.17;10.77;;;;;;;;;;6285553;22;20015;-80
2023/05/26 02:18:45;;;;;;;27.48;18.48;;;;;;;;;;6286534;22;20015;-81
2023/05/26 02:21:31;;;;;;;37.58;25.17;;;;;;;;;;6285695;22;20011;-81
2023/05/26 02:24:16;;;;;;;29.05;16.90;;;;;;;;;;6286424;22;20015;-81
2023/05/26 02:27:02;;;;;;;23.35;16.02;;;;;;;;;;6278890;22;20796;-81
2023/05/26 02:29:47;;;;;;;25.35;14.45;;;;;;;;;;6285605;22;20012;-81
2023/05/26 02:32:34;;;;;;;16.52;12.93;;;;;;;;;;6285146;22;20012;-81
2023/05/26 02:35:20;;;;;;;17.02;13.07;;;;;;;;;;6285531;22;20020;-81
2023/05/26 02:38:05;;;;;;;18.70;13.52;;;;;;;;;;6285149;22;20015;-81
2023/05/26 02:40:51;;;;;;;16.83;12.88;;;;;;;;;;6285488;22;20016;-81
2023/05/26 02:43:38;;;;;;;22.33;15.18;;;;;;;;;;6285472;22;20008;-81
2023/05/26 02:46:23;;;;;;;13.55;11.07;;;;;;;;;;6284859;22;20015;-81
2023/05/26 02:49:08;;;;;;;10.40;7.82;;;;;;;;;;6285230;22;20020;-81
2023/05/26 02:51:54;;;;;;;11.45;7.70;;;;;;;;;;6286573;22;20011;-80
2023/05/26 02:54:40;;;;;;;9.20;7.85;;;;;;;;;;6286203;22;20008;-80
2023/05/26 02:57:25;;;;;;;9.30;7.03;;;;;;;;;;6285013;22;20012;-81
2023/05/26 03:00:12;;;;;;;10.00;8.00;;;;;;;;;;6263457;22;20008;-81
2023/05/26 03:02:57;;;;;;;9.38;8.13;;;;;;;;;;6285067;22;20441;-81
2023/05/26 03:05:43;;;;;;;10.50;8.48;;;;;;;;;;6263760;22;20016;-82
2023/05/26 03:08:28;;;;;;;9.07;7.40;;;;;;;;;;6284889;22;20012;-81
2023/05/26 03:11:15;;;;;;;8.45;7.43;;;;;;;;;;6285095;22;20012;-80
2023/05/26 03:14:03;;;;;;;11.32;8.00;;;;;;;;;;6284378;22;20016;-80
2023/05/26 03:16:51;;;;;;;10.13;7.35;;;;;;;;;;6285008;22;20413;-81
2023/05/26 03:19:37;;;;;;;12.90;7.93;;;;;;;;;;6285090;22;20324;-81
2023/05/26 03:22:24;;;;;;;11.77;8.02;;;;;;;;;;6284769;22;20011;-81
2023/05/26 03:25:09;;;;;;;10.05;7.57;;;;;;;;;;6284597;22;20011;-80
2023/05/26 03:28:02;;;;;;;9.73;7.68;;;;;;;;;;6284034;22;20024;-81
2023/05/26 03:30:48;;;;;;;11.88;7.60;;;;;;;;;;6285061;22;20012;-81
2023/05/26 03:33:33;;;;;;;10.00;7.88;;;;;;;;;;6284804;22;20008;-80
2023/05/26 03:36:19;;;;;;;10.38;7.57;;;;;;;;;;6284198;22;20012;-81
2023/05/26 03:39:06;;;;;;;8.88;7.10;;;;;;;;;;6284009;22;20428;-80
2023/05/26 03:41:52;;;;;;;11.13;6.50;;;;;;;;;;6284617;22;20023;-82
2023/05/26 03:44:40;;;;;;;9.55;7.10;;;;;;;;;;6284831;22;20019;-80
2023/05/26 03:47:26;;;;;;;8.15;6.72;;;;;;;;;;6285973;22;20015;-81
2023/05/26 03:50:12;;;;;;;9.75;6.60;;;;;;;;;;6285455;22;20024;-80
2023/05/26 03:52:57;;;;;;;8.48;6.78;;;;;;;;;;6263053;22;20012;-80
2023/05/26 03:55:43;;;;;;;9.15;6.68;;;;;;;;;;6283916;22;20020;-80
2023/05/26 03:58:30;;;;;;;9.13;5.88;;;;;;;;;;6284705;22;20444;-80
2023/05/26 04:01:16;;;;;;;9.48;6.20;;;;;;;;;;6285358;22;20421;-80
2023/05/26 04:04:01;;;;;;;11.70;7.13;;;;;;;;;;6282117;22;20224;-80
2023/05/26 04:06:47;;;;;;;10.07;7.00;;;;;;;;;;6283108;22;20015;-80
2023/05/26 04:09:32;;;;;;;8.30;6.57;;;;;;;;;;6284280;22;20019;-79
2023/05/26 04:12:17;;;;;;;9.95;7.55;;;;;;;;;;6263561;22;20015;-79
2023/05/26 04:15:03;;;;;;;11.13;7.63;;;;;;;;;;6286054;22;20445;-80
2023/05/26 04:17:48;;;;;;;13.55;8.35;;;;;;;;;;6285588;22;20011;-80
2023/05/26 04:20:34;;;;;;;10.80;7.38;;;;;;;;;;6284742;22;20019;-81
2023/05/26 04:23:21;;;;;;;9.95;7.68;;;;;;;;;;6284571;22;20011;-81
2023/05/26 04:26:08;;;;;;;9.40;7.72;;;;;;;;;;6283606;22;20007;-80
2023/05/26 04:29:20;;;;;;;9.23;7.53;;;;;;;;;;6284079;22;20012;-81
2023/05/26 04:32:27;;;;;;;10.80;8.02;;;;;;;;;;6284165;22;20016;-81
2023/05/26 04:35:20;;;;;;;14.70;7.97;;;;;;;;;;6283520;22;20015;-81
2023/05/26 04:38:07;;;;;;;11.13;8.15;;;;;;;;;;6282751;22;20336;-80
2023/05/26 04:40:56;;;;;;;8.75;6.88;;;;;;;;;;6283276;22;20016;-80
2023/05/26 04:43:43;;;;;;;10.50;7.10;;;;;;;;;;6283525;22;20499;-81
2023/05/26 04:46:29;;;;;;;9.85;6.78;;;;;;;;;;6282286;22;20015;-81
2023/05/26 04:49:16;;;;;;;8.65;7.03;;;;;;;;;;6284022;22;20011;-81
2023/05/26 04:52:01;;;;;;;10.32;7.57;;;;;;;;;;6285196;22;20012;-81
2023/05/26 04:54:46;;;;;;;10.38;7.38;;;;;;;;;;6284164;22;20019;-81
2023/05/26 04:57:32;;;;;;;9.73;7.65;;;;;;;;;;6284268;22;20020;-82
2023/05/26 05:00:18;;;;;;;11.60;7.50;;;;;;;;;;6283775;22;20007;-81
2023/05/26 05:03:09;;;;;;;8.63;6.95;;;;;;;;;;6284027;22;20016;-81
2023/05/26 05:06:10;;;;;;;9.50;6.95;;;;;;;;;;6283500;22;20015;-81
2023/05/26 05:08:56;;;;;;;7.70;6.72;;;;;;;;;;6284148;22;20015;-81
2023/05/26 05:11:44;;;;;;;9.70;5.93;;;;;;;;;;6285004;22;20016;-81
2023/05/26 05:14:30;;;;;;;8.00;6.05;;;;;;;;;;6283675;22;20016;-81
2023/05/26 05:17:17;;;;;;;8.35;5.72;;;;;;;;;;6283726;22;20020;-81
2023/05/26 05:20:02;;;;;;;8.73;6.30;;;;;;;;;;6285584;22;20015;-80
2023/05/26 05:22:48;;;;;;;8.32;6.15;;;;;;;;;;6284718;22;20008;-81
2023/05/26 05:25:35;;;;;;;8.30;5.78;;;;;;;;;;6285366;22;20011;-82
2023/05/26 05:28:22;;;;;;;11.10;6.22;;;;;;;;;;6285718;22;20333;-81
2023/05/26 05:31:24;;;;;;;8.27;6.03;;;;;;;;;;6284218;22;20008;-81
2023/05/26 05:34:10;;;;;;;14.90;6.93;;;;;;;;;;6286802;22;20015;-81
2023/05/26 05:36:56;;;;;;;7.93;6.03;;;;;;;;;;6285934;22;20008;-81
2023/05/26 05:39:42;;;;;;;10.40;6.40;;;;;;;;;;6285276;22;20016;-82
2023/05/26 05:42:28;;;;;;;9.18;6.70;;;;;;;;;;6285266;22;20019;-81
2023/05/26 05:45:13;;;;;;;19.83;6.80;;;;;;;;;;6287078;22;20340;-81
2023/05/26 05:48:24;;;;;;;6.15;5.40;;;;;;;;;;6286730;22;20019;-81
2023/05/26 05:51:21;;;;;;;7.65;5.53;;;;;;;;;;6285999;22;20012;-81
2023/05/26 05:54:07;;;;;;;7.78;4.85;;;;;;;;;;6285545;22;20011;-81
2023/05/26 05:56:52;;;;;;;8.93;5.30;;;;;;;;;;6285733;22;20436;-82
2023/05/26 05:59:39;;;;;;;6.82;5.57;;;;;;;;;;6285816;22;20011;-82
2023/05/26 06:02:24;;;;;;;9.98;6.05;;;;;;;;;;6284729;22;20333;-82
2023/05/26 06:05:09;;;;;;;12.80;6.72;;;;;;;;;;6282666;22;20015;-81
2023/05/26 06:07:54;;;;;;;13.15;6.75;;;;;;;;;;6283192;22;20023;-81
2023/05/26 06:10:40;;;;;;;10.55;6.55;;;;;;;;;;6282978;22;20019;-80
2023/05/26 06:13:26;;;;;;;12.32;6.72;;;;;;;;;;6262229;22;20011;-82
2023/05/26 06:16:12;;;;;;;15.10;6.97;;;;;;;;;;6283324;22;20016;-81
2023/05/26 06:18:57;;;;;;;8.35;6.22;;;;;;;;;;6284649;22;20019;-82
2023/05/26 06:21:43;;;;;;;10.68;6.70;;;;;;;;;;6283574;22;20024;-81
2023/05/26 06:24:28;;;;;;;13.60;6.43;;;;;;;;;;6285042;22;20015;-80
2023/05/26 06:27:15;;;;;;;6.93;6.07;;;;;;;;;;6282688;22;20020;-80
2023/05/26 06:30:02;;;;;;;7.28;6.03;;;;;;;;;;6284918;22;20015;-81
2023/05/26 06:32:49;;;;;;;10.65;6.82;;;;;;;;;;6282609;22;20011;-81
2023/05/26 06:35:34;;;;;;;9.45;6.13;;;;;;;;;;6283380;22;20016;-82
2023/05/26 06:38:20;;;;;;;9.40;6.07;;;;;;;;;;6284173;22;20015;-79
2023/05/26 06:41:07;;;;;;;6.93;5.50;;;;;;;;;;6284343;22;20016;-82
2023/05/26 06:43:55;;;;;;;9.35;5.15;;;;;;;;;;6282528;22;20011;-79
2023/05/26 06:46:41;;;;;;;6.68;5.35;;;;;;;;;;6283481;22;20011;-81
2023/05/26 06:49:27;;;;;;;8.57;5.70;;;;;;;;;;6283450;22;20011;-80
2023/05/26 06:52:18;;;;;;;10.00;5.95;;;;;;;;;;6283027;22;20413;-82
2023/05/26 06:55:04;;;;;;;9.65;5.72;;;;;;;;;;6282766;22;20337;-81
2023/05/26 06:57:50;;;;;;;9.35;5.28;;;;;;;;;;6282548;22;20015;-81
2023/05/26 07:00:37;;;;;;;8.95;5.53;;;;;;;;;;6283142;22;20012;-81
2023/05/26 07:03:35;;;;;;;8.82;5.65;;;;;;;;;;6264478;22;20016;-81
2023/05/26 07:06:21;;;;;;;10.43;6.40;;;;;;;;;;6284041;22;20015;-81
2023/05/26 07:09:11;;;;;;;11.27;5.30;;;;;;;;;;6282997;22;20016;-80
2023/05/26 07:12:06;;;;;;;9.55;6.30;;;;;;;;;;6282548;22;20337;-80
2023/05/26 07:15:13;;;;;;;8.32;5.93;;;;;;;;;;6283001;22;20043;-80
2023/05/26 07:17:58;;;;;;;7.93;5.90;;;;;;;;;;6284182;22;20015;-81
2023/05/26 07:20:47;;;;;;;6.53;5.15;;;;;;;;;;6282515;22;20012;-81
2023/05/26 07:23:32;;;;;;;8.52;5.72;;;;;;;;;;6283057;22;20016;-81
2023/05/26 07:26:18;;;;;;;7.93;5.28;;;;;;;;;;6279770;22;20020;-80
2023/05/26 07:29:03;;;;;;;6.43;5.65;;;;;;;;;;6282930;22;20332;-80
2023/05/26 07:31:48;;;;;;;9.45;5.63;;;;;;;;;;6284878;22;20016;-80
2023/05/26 07:34:34;;;;;;;9.02;5.85;;;;;;;;;;6283951;22;20016;-80
2023/05/26 07:37:19;;;;;;;7.22;5.93;;;;;;;;;;6285941;22;20019;-80
2023/05/26 07:40:06;;;;;;;13.27;6.80;;;;;;;;;;6285635;22;20325;-80
2023/05/26 07:42:52;;;;;;;8.07;6.25;;;;;;;;;;6285872;22;20016;-82
2023/05/26 07:45:38;;;;;;;9.48;6.07;;;;;;;;;;6284387;22;20011;-80
2023/05/26 07:48:23;;;;;;;9.73;6.32;;;;;;;;;;6285715;22;20023;-81
2023/05/26 07:51:08;;;;;;;7.68;6.20;;;;;;;;;;6285860;22;20012;-81
2023/05/26 07:53:54;;;;;;;9.05;5.80;;;;;;;;;;6285378;22;20015;-81
2023/05/26 07:56:40;;;;;;;9.32;6.38;;;;;;;;;;6285794;22;20333;-80
2023/05/26 07:59:26;;;;;;;8.88;5.55;;;;;;;;;;6285520;22;20012;-81
2023/05/26 08:02:11;;;;;;;7.85;6.18;;;;;;;;;;6285485;22;20317;-80
2023/05/26 08:04:57;;;;;;;6.93;6.20;;;;;;;;;;6284531;22;20324;-80
2023/05/26 08:07:42;;;;;;;9.32;5.95;;;;;;;;;;6285343;22;20020;-81
2023/05/26 08:10:28;;;;;;;8.02;6.22;;;;;;;;;;6284124;22;20011;-82
2023/05/26 08:13:14;;;;;;;7.57;5.40;;;;;;;;;;6284509;22;20016;-81
2023/05/26 08:15:59;;;;;;;10.57;6.82;;;;;;;;;;6285429;22;20016;-82
2023/05/26 08:18:44;;;;;;;7.28;5.72;;;;;;;;;;6285529;22;20015;-81
2023/05/26 08:21:29;;;;;;;7.35;5.30;;;;;;;;;;6284109;22;20012;-81
2023/05/26 08:24:15;;;;;;;8.82;5.80;;;;;;;;;;6283754;22;20034;-81
2023/05/26 08:27:00;;;;;;;7.05;6.15;;;;;;;;;;6277127;22;20019;-82
2023/05/26 08:29:45;;;;;;;6.90;5.53;;;;;;;;;;6283898;22;20332;-83
2023/05/26 08:32:31;;;;;;;8.95;6.25;;;;;;;;;;6285505;22;20016;-81
2023/05/26 08:35:17;;;;;;;8.13;5.60;;;;;;;;;;6285179;22;20015;-84
2023/05/26 08:38:02;;;;;;;7.55;6.20;;;;;;;;;;6284061;22;20015;-82
2023/05/26 08:40:51;;;;;;;8.50;6.22;;;;;;;;;;6284172;22;20015;-82
2023/05/26 08:43:52;;;;;;;9.20;6.78;;;;;;;;;;6284916;22;20031;-82
2023/05/26 08:46:39;;;;;;;10.93;6.25;;;;;;;;;;6284950;22;20329;-83
2023/05/26 08:49:26;;;;;;;9.13;5.72;;;;;;;;;;6285094;22;20011;-81
2023/05/26 08:52:14;;;;;;;6.43;5.65;;;;;;;;;;6285211;22;20020;-82
2023/05/26 08:54:59;;;;;;;16.73;6.68;;;;;;;;;;6286402;22;20015;-82
2023/05/26 08:57:44;;;;;;;8.98;6.40;;;;;;;;;;6287157;22;20024;-82
2023/05/26 09:00:32;;;;;;;8.02;6.38;;;;;;;;;;6285667;22;20012;-82
2023/05/26 09:03:24;;;;;;;6.78;6.07;;;;;;;;;;6285253;22;20016;-82
2023/05/26 09:06:23;;;;;;;7.82;4.95;;;;;;;;;;6282830;22;20428;-82
2023/05/26 09:09:21;;;;;;;7.50;5.85;;;;;;;;;;6285573;22;20012;-82
2023/05/26 09:12:15;;;;;;;7.10;6.40;;;;;;;;;;6284653;22;20432;-83
2023/05/26 09:15:14;;;;;;;5.85;4.35;;;;;;;;;;6284677;22;20016;-82
2023/05/26 09:18:21;;;;;;;7.47;4.20;;;;;;;;;;6284199;22;20020;-83
2023/05/26 09:21:16;;;;;;;8.10;5.10;;;;;;;;;;6284664;22;20020;-83
2023/05/26 09:24:03;;;;;;;7.80;5.82;;;;;;;;;;6286437;22;20432;-82
2023/05/26 09:26:50;;;;;;;7.60;5.50;;;;;;;;;;6288034;22;20016;-82
2023/05/26 09:29:47;;;;;;;8.23;5.38;;;;;;;;;;6279555;22;20012;-83
2023/05/26 09:32:33;;;;;;;5.93;5.05;;;;;;;;;;6281293;22;20321;-82
2023/05/26 09:35:18;;;;;;;17.08;10.27;;;;;;;;;;6282190;22;20016;-82
2023/05/26 09:38:05;;;;;;;16.85;11.85;;;;;;;;;;6280657;22;20015;-83
2023/05/26 09:40:50;;;;;;;7.15;5.10;;;;;;;;;;6283014;22;20015;-82
2023/05/26 09:43:36;;;;;;;6.72;5.63;;;;;;;;;;6283010;22;20020;-81
2023/05/26 09:46:22;;;;;;;13.68;5.18;;;;;;;;;;6282410;22;20012;-82
2023/05/26 09:49:17;;;;;;;6.80;5.13;;;;;;;;;;6284787;22;20015;-82
2023/05/26 09:52:04;;;;;;;10.07;4.90;;;;;;;;;;6283151;22;20020;-82
2023/05/26 09:54:49;;;;;;;16.88;9.05;;;;;;;;;;6262562;22;20019;-84
2023/05/26 09:57:37;;;;;;;11.07;6.90;;;;;;;;;;6284960;22;20019;-85
2023/05/26 10:00:26;;;;;;;7.20;4.55;;;;;;;;;;6284292;22;20015;-81
2023/05/26 10:03:14;;;;;;;4.85;4.10;;;;;;;;;;6262210;22;20011;-79
2023/05/26 10:06:00;;;;;;;6.70;4.80;;;;;;;;;;6284545;22;20016;-82
2023/05/26 10:08:50;;;;;;;12.75;8.07;;;;;;;;;;6284942;22;20019;-82
2023/05/26 10:11:43;;;;;;;10.27;5.75;;;;;;;;;;6283876;22;20020;-81
2023/05/26 10:14:28;;;;;;;9.93;5.95;;;;;;;;;;6282981;22;20016;-81
2023/05/26 10:17:14;;;;;;;8.90;5.28;;;;;;;;;;6283081;22;20019;-82
2023/05/26 10:20:00;;;;;;;12.00;6.88;;;;;;;;;;6281391;22;20019;-82
2023/05/26 10:22:48;;;;;;;9.80;7.63;;;;;;;;;;6283398;22;20020;-84
2023/05/26 10:25:52;;;;;;;11.02;8.10;;;;;;;;;;6278925;22;20322;-84
2023/05/26 10:29:03;;;;;;;16.13;9.82;;;;;;;;;;6281119;22;20019;-83
2023/05/26 10:31:48;;;;;;;15.35;9.63;;;;;;;;;;6281189;22;20008;-82
2023/05/26 10:34:40;;;;;;;8.65;6.35;;;;;;;;;;6281282;22;20016;-83
2023/05/26 10:37:26;;;;;;;11.35;8.48;;;;;;;;;;6281339;22;20397;-83
2023/05/26 10:40:29;;;;;;;10.48;7.18;;;;;;;;;;6259893;22;20011;-82
2023/05/26 10:43:25;;;;;;;14.75;8.48;;;;;;;;;;6281198;22;20023;-84
2023/05/26 10:46:11;;;;;;;15.48;11.13;;;;;;;;;;6281319;22;20011;-82
2023/05/26 10:48:58;;;;;;;9.73;8.27;;;;;;;;;;6281131;22;20023;-81
2023/05/26 10:51:48;;;;;;;10.85;7.88;;;;;;;;;;6282443;22;20016;-82
2023/05/26 10:54:33;;;;;;;17.70;9.48;;;;;;;;;;6259653;22;20020;-82
2023/05/26 10:57:31;;;;;;;17.85;11.15;;;;;;;;;;6280303;22;20464;-84
2023/05/26 11:00:26;;;;;;;18.55;10.23;;;;;;;;;;6259137;22;20008;-83
2023/05/26 11:03:36;;;;;;;12.90;9.88;;;;;;;;;;6282263;22;20019;-81
2023/05/26 11:06:54;;;;;;;13.63;10.02;;;;;;;;;;6259472;22;20412;-82
2023/05/26 11:09:56;;;;;;;11.75;8.98;;;;;;;;;;6269061;22;20012;-82
2023/05/26 11:12:54;;;;;;;14.40;8.88;;;;;;;;;;6282509;22;20015;-83
2023/05/26 11:15:40;;;;;;;13.43;9.88;;;;;;;;;;6280972;22;20384;-82
2023/05/26 11:18:26;;;;;;;13.48;9.10;;;;;;;;;;6281765;22;20024;-85
2023/05/26 11:21:13;;;;;;;10.82;8.55;;;;;;;;;;6284612;22;20432;-84
2023/05/26 11:23:59;;;;;;;12.02;8.45;;;;;;;;;;6284118;22;20011;-83
2023/05/26 11:26:45;;;;;;;10.60;9.07;;;;;;;;;;6277327;22;20019;-83
2023/05/26 11:29:30;;;;;;;13.88;9.52;;;;;;;;;;6283245;22;20016;-83
2023/05/26 11:32:15;;;;;;;12.88;9.73;;;;;;;;;;6283856;22;20019;-83
2023/05/26 11:35:01;;;;;;;14.25;10.07;;;;;;;;;;6284663;22;20011;-83
2023/05/26 11:37:46;;;;;;;13.73;10.75;;;;;;;;;;6284072;22;20364;-82
2023/05/26 11:40:32;;;;;;;14.70;10.63;;;;;;;;;;6283104;22;20012;-83
2023/05/26 11:43:23;;;;;;;12.63;9.88;;;;;;;;;;6284392;22;20020;-84
2023/05/26 11:46:09;;;;;;;14.52;11.13;;;;;;;;;;6284259;22;20426;-83
2023/05/26 11:48:55;;;;;;;13.30;10.10;;;;;;;;;;6263249;22;20468;-84
2023/05/26 11:51:48;;;;;;;11.52;9.23;;;;;;;;;;6284302;22;20016;-84
2023/05/26 11:54:32;;;;;;;10.48;8.05;;;;;;;;;;6262986;22;20015;-83
2023/05/26 11:57:25;;;;;;;10.65;7.90;;;;;;;;;;6285667;22;20016;-83
2023/05/26 12:00:17;;;;;;;21.42;9.15;;;;;;;;;;6283536;22;20007;-84
2023/05/26 12:03:03;;;;;;;9.27;7.20;;;;;;;;;;6262805;22;20012;-82
2023/05/26 12:05:48;;;;;;;10.65;6.72;;;;;;;;;;6285527;22;20015;-83
2023/05/26 12:08:53;;;;;;;10.70;7.70;;;;;;;;;;6284352;22;20016;-81
2023/05/26 12:11:41;;;;;;;14.60;9.03;;;;;;;;;;6263012;22;20015;-83
2023/05/26 12:14:27;;;;;;;11.15;8.40;;;;;;;;;;6284129;22;20019;-82
2023/05/26 12:17:13;;;;;;;12.82;9.48;;;;;;;;;;6284575;22;20011;-82
2023/05/26 12:19:59;;;;;;;17.50;9.50;;;;;;;;;;6285145;22;20012;-83
2023/05/26 12:22:44;;;;;;;16.40;9.63;;;;;;;;;;6262825;22;20012;-84
2023/05/26 12:25:31;;;;;;;16.23;9.63;;;;;;;;;;6282019;22;20015;-84
2023/05/26 12:28:17;;;;;;;18.80;9.55;;;;;;;;;;6285030;22;20020;-84
2023/05/26 12:31:02;;;;;;;17.40;10.10;;;;;;;;;;6285496;22;20011;-85
2023/05/26 12:33:48;;;;;;;16.52;9.32;;;;;;;;;;6283764;22;20015;-83
2023/05/26 12:36:34;;;;;;;14.90;9.75;;;;;;;;;;6262750;22;20012;-83
2023/05/26 12:39:19;;;;;;;17.10;10.57;;;;;;;;;;6284160;22;20425;-84
2023/05/26 12:42:05;;;;;;;14.93;10.18;;;;;;;;;;6262317;22;20015;-84
2023/05/26 12:44:51;;;;;;;14.68;10.18;;;;;;;;;;6285332;22;20332;-84
2023/05/26 12:47:38;;;;;;;22.13;14.85;;;;;;;;;;6262516;22;20019;-85
2023/05/26 12:50:23;;;;;;;14.48;10.80;;;;;;;;;;6262572;22;20015;-84
2023/05/26 12:53:08;;;;;;;20.15;12.93;;;;;;;;;;6285461;22;20034;-84
2023/05/26 12:55:54;;;;;;;13.23;10.43;;;;;;;;;;6261742;22;20016;-83
2023/05/26 12:58:43;;;;;;;13.45;9.45;;;;;;;;;;6283837;22;20016;-83
2023/05/26 13:01:29;;;;;;;18.42;10.80;;;;;;;;;;6285007;22;20324;-83
2023/05/26 13:04:15;;;;;;;16.20;11.07;;;;;;;;;;6285316;22;20015;-84
2023/05/26 13:07:00;;;;;;;15.27;11.25;;;;;;;;;;6284033;22;20008;-84
2023/05/26 13:09:46;;;;;;;19.13;13.32;;;;;;;;;;6283142;22;20023;-85
2023/05/26 13:12:31;;;;;;;18.63;13.35;;;;;;;;;;6283247;22;20015;-84
2023/05/26 13:15:19;;;;;;;20.90;12.82;;;;;;;;;;6284368;22;20023;-86
2023/05/26 13:18:07;;;;;;;16.02;11.98;;;;;;;;;;6283683;22;20011;-84
2023/05/26 13:20:54;;;;;;;15.63;12.25;;;;;;;;;;6262626;22;20317;-86
2023/05/26 13:23:43;;;;;;;12.95;10.45;;;;;;;;;;6283459;22;20015;-84
2023/05/26 13:26:29;;;;;;;17.48;11.82;;;;;;;;;;6279385;22;20016;-84
2023/05/26 13:29:15;;;;;;;14.00;10.88;;;;;;;;;;6284032;22;20016;-86
2023/05/26 13:32:00;;;;;;;19.90;12.57;;;;;;;;;;6284038;22;20011;-83
2023/05/26 13:34:49;;;;;;;18.08;11.20;;;;;;;;;;6283781;22;20016;-85
2023/05/26 13:37:35;;;;;;;13.40;9.85;;;;;;;;;;6283533;22;20433;-85
2023/05/26 13:40:21;;;;;;;13.75;9.70;;;;;;;;;;6284234;22;20020;-84
2023/05/26 13:43:06;;;;;;;19.38;11.23;;;;;;;;;;6264257;22;20012;-84
2023/05/26 13:45:52;;;;;;;10.98;9.38;;;;;;;;;;6285646;22;20019;-84
2023/05/26 13:48:37;;;;;;;19.00;11.13;;;;;;;;;;6284651;22;20020;-84
2023/05/26 13:51:23;;;;;;;14.77;11.20;;;;;;;;;;6284761;22;20016;-84
2023/05/26 13:54:08;;;;;;;14.60;11.15;;;;;;;;;;6264018;22;20016;-83
2023/05/26 13:56:54;;;;;;;15.90;10.98;;;;;;;;;;6286879;22;20324;-85
2023/05/26 13:59:40;;;;;;;18.52;10.57;;;;;;;;;;6262716;22;20012;-84
2023/05/26 14:02:26;;;;;;;13.60;10.32;;;;;;;;;;6264100;22;20013;-85
2023/05/26 14:05:14;;;;;;;15.82;10.57;;;;;;;;;;6261699;22;20015;-84
2023/05/26 14:08:02;;;;;;;19.02;11.13;;;;;;;;;;6286057;22;20012;-84
2023/05/26 14:10:47;;;;;;;14.27;10.93;;;;;;;;;;6263939;22;20016;-83
2023/05/26 14:13:32;;;;;;;19.70;11.02;;;;;;;;;;6285167;22;20015;-83
2023/05/26 14:16:17;;;;;;;17.17;10.88;;;;;;;;;;6285373;22;20016;-83
2023/05/26 14:19:03;;;;;;;12.00;9.77;;;;;;;;;;6286093;22;20324;-84
2023/05/26 14:21:48;;;;;;;14.18;10.05;;;;;;;;;;6261728;22;20016;-84
2023/05/26 14:24:34;;;;;;;13.88;10.18;;;;;;;;;;6284521;22;20016;-83
2023/05/26 14:27:20;;;;;;;12.88;10.20;;;;;;;;;;6261331;22;20016;-84
2023/05/26 14:30:09;;;;;;;15.23;10.63;;;;;;;;;;6283408;22;20020;-83
2023/05/26 14:32:54;;;;;;;16.38;11.63;;;;;;;;;;6284388;22;20015;-82
2023/05/26 14:35:39;;;;;;;16.05;12.20;;;;;;;;;;6281937;22;20015;-83
2023/05/26 14:38:25;;;;;;;16.20;11.57;;;;;;;;;;6261009;22;20019;-83
2023/05/26 14:41:13;;;;;;;13.75;9.77;;;;;;;;;;6261474;22;20429;-84
2023/05/26 14:43:59;;;;;;;15.77;11.15;;;;;;;;;;6263890;22;20012;-84
2023/05/26 14:46:45;;;;;;;15.85;10.80;;;;;;;;;;6284279;22;20027;-85
2023/05/26 14:49:31;;;;;;;16.63;11.90;;;;;;;;;;6262479;22;20015;-85
2023/05/26 14:52:16;;;;;;;15.60;11.93;;;;;;;;;;6282937;22;20432;-82
2023/05/26 14:55:02;;;;;;;14.70;11.18;;;;;;;;;;6260954;22;20011;-83
2023/05/26 14:57:47;;;;;;;17.00;12.35;;;;;;;;;;6257525;22;20015;-84
2023/05/26 15:00:33;;;;;;;17.42;12.00;;;;;;;;;;6260072;22;20019;-85
2023/05/26 15:03:19;;;;;;;16.70;11.32;;;;;;;;;;6261659;22;20020;-84
2023/05/26 15:06:08;;;;;;;24.95;12.45;;;;;;;;;;6261345;22;20404;-84
2023/05/26 15:08:55;;;;;;;16.73;12.40;;;;;;;;;;6282724;22;20019;-82
2023/05/26 15:11:47;;;;;;;18.45;12.10;;;;;;;;;;6261423;22;20019;-83
2023/05/26 15:14:32;;;;;;;14.27;11.55;;;;;;;;;;6282774;22;20011;-83
2023/05/26 15:17:18;;;;;;;18.67;11.77;;;;;;;;;;6260689;22;20015;-84
2023/05/26 15:20:05;;;;;;;15.80;11.63;;;;;;;;;;6282360;22;20380;-81
2023/05/26 15:22:50;;;;;;;16.10;10.35;;;;;;;;;;6258774;22;20023;-82
2023/05/26 15:25:35;;;;;;;15.43;11.18;;;;;;;;;;6260909;22;20012;-83
2023/05/26 15:28:25;;;;;;;17.20;11.70;;;;;;;;;;6277532;22;20020;-83
2023/05/26 15:31:10;;;;;;;14.88;11.13;;;;;;;;;;6279228;22;20016;-82
2023/05/26 15:33:56;;;;;;;20.58;9.23;;;;;;;;;;6257576;22;20341;-81
2023/05/26 15:36:48;;;;;;;13.00;9.30;;;;;;;;;;6281102;22;20012;-83
2023/05/26 15:39:37;;;;;;;15.10;10.30;;;;;;;;;;6280149;22;20007;-86
2023/05/26 15:42:22;;;;;;;17.40;11.52;;;;;;;;;;6281186;22;20015;-84
2023/05/26 15:45:08;;;;;;;17.63;11.05;;;;;;;;;;6284123;22;20325;-84
2023/05/26 15:47:53;;;;;;;17.63;11.45;;;;;;;;;;6280040;22;20015;-85
2023/05/26 15:50:39;;;;;;;13.73;9.13;;;;;;;;;;6278514;22;20016;-84
2023/05/26 15:53:25;;;;;;;16.83;9.40;;;;;;;;;;6281733;22;20432;-84
2023/05/26 15:56:10;;;;;;;16.15;10.18;;;;;;;;;;6282472;22;20020;-83
2023/05/26 15:58:56;;;;;;;19.63;12.65;;;;;;;;;;6280444;22;20015;-84
2023/05/26 16:01:52;;;;;;;12.13;9.73;;;;;;;;;;6259128;22;20012;-83
2023/05/26 16:04:47;;;;;;;15.02;10.32;;;;;;;;;;6283540;22;20425;-83
2023/05/26 16:07:33;;;;;;;20.00;10.32;;;;;;;;;;6280756;22;20324;-84
2023/05/26 16:10:19;;;;;;;13.68;10.50;;;;;;;;;;6259174;22;20012;-82
2023/05/26 16:13:05;;;;;;;13.43;9.43;;;;;;;;;;6281546;22;20019;-83
2023/05/26 16:15:52;;;;;;;14.07;9.85;;;;;;;;;;6279642;22;20015;-83
2023/05/26 16:18:46;;;;;;;15.60;10.55;;;;;;;;;;6281813;22;20011;-84
2023/05/26 16:21:42;;;;;;;;;;;;;;;;;;6249682;23;20772;-83
2023/05/26 16:24:28;;;;;;;16.13;10.40;;;;;;;;;;6253099;23;19904;-82
2023/05/26 16:27:14;;;;;;;18.33;9.80;;;;;;;;;;6242228;23;20016;-83
2023/05/26 16:30:00;;;;;;;19.73;11.43;;;;;;;;;;6250572;23;20020;-83
2023/05/26 16:32:46;;;;;;;13.93;9.85;;;;;;;;;;6250655;23;20016;-83